sensor_id;sensor_type;location;lat;lon;timestamp;P1;durP1;ratioP1;P2;durP2;ratioP2
1122;SDS011;548;48.778;9.252;2023-04-19T00:48:40;22.30;;;20.80;;
1122;SDS011;548;48.778;9.252;2023-04-19T00:51:07;23.37;;;21.57;;
1122;SDS011;548;48.778;9.252;2023-04-19T00:53:34;22.20;;;20.63;;
1122;SDS011;548;48.778;9.252;2023-04-19T00:56:01;22.13;;;20.73;;
1122;SDS011;548;48.778;9.252;2023-04-19T00:58:30;25.00;;;23.00;;
1122;SDS011;548;48.778;9.252;2023-04-19T01:00:57;23.23;;;21.73;;
1122;SDS011;548;48.778;9.252;2023-04-19T01:03:24;23.60;;;21.80;;
1122;SDS011;548;48.778;9.252;2023-04-19T01:05:54;21.63;;;20.17;;
1122;SDS011;548;48.778;9.252;2023-04-19T01:08:21;23.37;;;21.47;;
1122;SDS011;548;48.778;9.252;2023-04-19T01:10:48;23.70;;;22.20;;
1122;SDS011;548;48.778;9.252;2023-04-19T01:13:15;22.23;;;20.77;;
1122;SDS011;548;48.778;9.252;2023-04-19T01:15:41;21.13;;;19.53;;
1122;SDS011;548;48.778;9.252;2023-04-19T01:18:08;22.70;;;21.20;;
1122;SDS011;548;48.778;9.252;2023-04-19T01:20:35;22.50;;;20.90;;
1122;SDS011;548;48.778;9.252;2023-04-19T01:23:03;25.67;;;23.77;;
1122;SDS011;548;48.778;9.252;2023-04-19T01:25:30;25.00;;;23.10;;
1122;SDS011;548;48.778;9.252;2023-04-19T01:27:56;24.27;;;22.47;;
1122;SDS011;548;48.778;9.252;2023-04-19T01:30:23;23.83;;;22.03;;
1122;SDS011;548;48.778;9.252;2023-04-19T01:32:50;22.23;;;20.63;;
1122;SDS011;548;48.778;9.252;2023-04-19T01:35:16;23.83;;;22.03;;
1122;SDS011;548;48.778;9.252;2023-04-19T01:37:43;21.33;;;19.73;;
1122;SDS011;548;48.778;9.252;2023-04-19T01:40:12;24.03;;;22.40;;
1122;SDS011;548;48.778;9.252;2023-04-19T01:42:39;23.20;;;21.47;;
1122;SDS011;548;48.778;9.252;2023-04-19T01:45:06;22.67;;;21.10;;
1122;SDS011;548;48.778;9.252;2023-04-19T01:47:34;24.17;;;22.43;;
1122;SDS011;548;48.778;9.252;2023-04-19T01:50:00;24.40;;;22.60;;
1122;SDS011;548;48.778;9.252;2023-04-19T01:52:27;25.87;;;23.83;;
1122;SDS011;548;48.778;9.252;2023-04-19T01:54:54;24.37;;;22.47;;
1122;SDS011;548;48.778;9.252;2023-04-19T01:57:22;23.47;;;21.77;;
1122;SDS011;548;48.778;9.252;2023-04-19T01:59:48;25.93;;;24.10;;
1122;SDS011;548;48.778;9.252;2023-04-19T02:02:15;26.13;;;24.07;;
1122;SDS011;548;48.778;9.252;2023-04-19T02:04:42;22.70;;;21.17;;
1122;SDS011;548;48.778;9.252;2023-04-19T02:07:08;22.73;;;20.97;;
1122;SDS011;548;48.778;9.252;2023-04-19T02:09:35;23.47;;;21.57;;
1122;SDS011;548;48.778;9.252;2023-04-19T02:12:02;23.13;;;21.53;;
1122;SDS011;548;48.778;9.252;2023-04-19T02:14:31;25.00;;;23.10;;
1122;SDS011;548;48.778;9.252;2023-04-19T02:16:57;27.40;;;24.87;;
1122;SDS011;548;48.778;9.252;2023-04-19T02:19:24;25.90;;;23.97;;
1122;SDS011;548;48.778;9.252;2023-04-19T02:21:51;24.03;;;22.27;;
1122;SDS011;548;48.778;9.252;2023-04-19T02:24:21;25.90;;;24.07;;
1122;SDS011;548;48.778;9.252;2023-04-19T02:26:48;24.37;;;22.67;;
1122;SDS011;548;48.778;9.252;2023-04-19T02:29:15;25.97;;;24.17;;
1122;SDS011;548;48.778;9.252;2023-04-19T02:31:43;25.17;;;23.27;;
1122;SDS011;548;48.778;9.252;2023-04-19T02:34:10;25.23;;;23.37;;
1122;SDS011;548;48.778;9.252;2023-04-19T02:36:37;23.57;;;21.70;;
1122;SDS011;548;48.778;9.252;2023-04-19T02:39:04;22.63;;;21.00;;
1122;SDS011;548;48.778;9.252;2023-04-19T02:41:30;25.00;;;23.20;;
1122;SDS011;548;48.778;9.252;2023-04-19T02:43:57;24.20;;;22.40;;
1122;SDS011;548;48.778;9.252;2023-04-19T02:46:24;25.17;;;23.27;;
1122;SDS011;548;48.778;9.252;2023-04-19T02:48:52;24.40;;;22.80;;
1122;SDS011;548;48.778;9.252;2023-04-19T02:51:18;25.30;;;23.40;;
1122;SDS011;548;48.778;9.252;2023-04-19T02:53:45;25.03;;;23.23;;
1122;SDS011;548;48.778;9.252;2023-04-19T02:56:12;23.97;;;22.07;;
1122;SDS011;548;48.778;9.252;2023-04-19T02:58:39;23.03;;;21.53;;
1122;SDS011;548;48.778;9.252;2023-04-19T03:01:06;23.50;;;21.90;;
1122;SDS011;548;48.778;9.252;2023-04-19T03:03:32;24.00;;;22.23;;
1122;SDS011;548;48.778;9.252;2023-04-19T03:06:01;25.93;;;23.90;;
1122;SDS011;548;48.778;9.252;2023-04-19T03:08:27;25.80;;;23.67;;
1122;SDS011;548;48.778;9.252;2023-04-19T03:10:54;25.77;;;23.60;;
1122;SDS011;548;48.778;9.252;2023-04-19T03:13:21;25.40;;;23.50;;
1122;SDS011;548;48.778;9.252;2023-04-19T03:15:47;24.87;;;23.07;;
1122;SDS011;548;48.778;9.252;2023-04-19T03:18:14;24.80;;;22.90;;
1122;SDS011;548;48.778;9.252;2023-04-19T03:20:42;26.57;;;24.47;;
1122;SDS011;548;48.778;9.252;2023-04-19T03:23:10;27.73;;;25.73;;
1122;SDS011;548;48.778;9.252;2023-04-19T03:25:36;25.47;;;23.60;;
1122;SDS011;548;48.778;9.252;2023-04-19T03:28:03;27.83;;;25.60;;
1122;SDS011;548;48.778;9.252;2023-04-19T03:30:30;26.00;;;23.90;;
1122;SDS011;548;48.778;9.252;2023-04-19T03:32:56;26.87;;;24.90;;
1122;SDS011;548;48.778;9.252;2023-04-19T03:35:24;27.57;;;25.47;;
1122;SDS011;548;48.778;9.252;2023-04-19T03:37:50;27.47;;;25.27;;
1122;SDS011;548;48.778;9.252;2023-04-19T03:40:19;28.57;;;26.27;;
1122;SDS011;548;48.778;9.252;2023-04-19T03:42:46;28.00;;;25.90;;
1122;SDS011;548;48.778;9.252;2023-04-19T03:45:12;27.83;;;25.67;;
1122;SDS011;548;48.778;9.252;2023-04-19T03:47:39;31.13;;;28.30;;
1122;SDS011;548;48.778;9.252;2023-04-19T03:50:06;28.90;;;26.60;;
1122;SDS011;548;48.778;9.252;2023-04-19T03:52:34;29.67;;;27.07;;
1122;SDS011;548;48.778;9.252;2023-04-19T03:55:01;28.07;;;25.77;;
1122;SDS011;548;48.778;9.252;2023-04-19T03:57:29;28.77;;;26.77;;
1122;SDS011;548;48.778;9.252;2023-04-19T03:59:56;28.20;;;26.10;;
1122;SDS011;548;48.778;9.252;2023-04-19T04:02:22;27.17;;;24.87;;
1122;SDS011;548;48.778;9.252;2023-04-19T04:04:51;30.80;;;28.10;;
1122;SDS011;548;48.778;9.252;2023-04-19T04:07:19;29.53;;;27.13;;
1122;SDS011;548;48.778;9.252;2023-04-19T04:09:47;28.90;;;26.43;;
1122;SDS011;548;48.778;9.252;2023-04-19T04:12:14;31.43;;;28.70;;
1122;SDS011;548;48.778;9.252;2023-04-19T04:14:42;28.97;;;26.57;;
1122;SDS011;548;48.778;9.252;2023-04-19T04:17:09;31.13;;;28.33;;
1122;SDS011;548;48.778;9.252;2023-04-19T04:19:36;31.80;;;29.37;;
1122;SDS011;548;48.778;9.252;2023-04-19T04:22:02;29.23;;;26.90;;
1122;SDS011;548;48.778;9.252;2023-04-19T04:24:30;29.13;;;26.77;;
1122;SDS011;548;48.778;9.252;2023-04-19T04:26:56;29.87;;;27.30;;
1122;SDS011;548;48.778;9.252;2023-04-19T04:29:24;31.80;;;29.20;;
1122;SDS011;548;48.778;9.252;2023-04-19T04:31:54;31.17;;;28.67;;
1122;SDS011;548;48.778;9.252;2023-04-19T04:34:22;32.03;;;29.50;;
1122;SDS011;548;48.778;9.252;2023-04-19T04:36:49;32.80;;;30.03;;
1122;SDS011;548;48.778;9.252;2023-04-19T04:39:17;29.40;;;27.10;;
1122;SDS011;548;48.778;9.252;2023-04-19T04:41:43;30.87;;;28.37;;
1122;SDS011;548;48.778;9.252;2023-04-19T04:44:11;31.47;;;28.77;;
1122;SDS011;548;48.778;9.252;2023-04-19T04:46:39;31.23;;;28.50;;
1122;SDS011;548;48.778;9.252;2023-04-19T04:49:07;31.33;;;28.53;;
1122;SDS011;548;48.778;9.252;2023-04-19T04:51:34;28.60;;;26.10;;
1122;SDS011;548;48.778;9.252;2023-04-19T04:54:02;30.70;;;28.20;;
1122;SDS011;548;48.778;9.252;2023-04-19T04:56:29;30.70;;;27.60;;
1122;SDS011;548;48.778;9.252;2023-04-19T04:58:56;30.23;;;27.60;;
1122;SDS011;548;48.778;9.252;2023-04-19T05:01:23;31.87;;;29.03;;
1122;SDS011;548;48.778;9.252;2023-04-19T05:03:50;30.07;;;27.27;;
1122;SDS011;548;48.778;9.252;2023-04-19T05:06:18;29.40;;;26.77;;
1122;SDS011;548;48.778;9.252;2023-04-19T05:08:45;31.00;;;28.27;;
1122;SDS011;548;48.778;9.252;2023-04-19T05:11:12;32.17;;;29.07;;
1122;SDS011;548;48.778;9.252;2023-04-19T05:13:39;30.77;;;27.87;;
1122;SDS011;548;48.778;9.252;2023-04-19T05:16:06;28.90;;;26.47;;
1122;SDS011;548;48.778;9.252;2023-04-19T05:18:32;31.00;;;28.27;;
1122;SDS011;548;48.778;9.252;2023-04-19T05:20:59;31.07;;;28.33;;
1122;SDS011;548;48.778;9.252;2023-04-19T05:23:27;29.83;;;27.37;;
1122;SDS011;548;48.778;9.252;2023-04-19T05:25:54;30.60;;;28.00;;
1122;SDS011;548;48.778;9.252;2023-04-19T05:28:20;28.30;;;26.00;;
1122;SDS011;548;48.778;9.252;2023-04-19T05:30:47;30.93;;;28.13;;
1122;SDS011;548;48.778;9.252;2023-04-19T05:33:14;30.23;;;27.33;;
1122;SDS011;548;48.778;9.252;2023-04-19T05:35:40;29.13;;;26.53;;
1122;SDS011;548;48.778;9.252;2023-04-19T05:38:07;29.20;;;26.70;;
1122;SDS011;548;48.778;9.252;2023-04-19T05:40:35;27.00;;;24.77;;
1122;SDS011;548;48.778;9.252;2023-04-19T05:43:04;29.90;;;27.10;;
1122;SDS011;548;48.778;9.252;2023-04-19T05:45:30;30.83;;;28.33;;
1122;SDS011;548;48.778;9.252;2023-04-19T05:47:57;28.37;;;25.97;;
1122;SDS011;548;48.778;9.252;2023-04-19T05:50:24;28.87;;;26.27;;
1122;SDS011;548;48.778;9.252;2023-04-19T05:52:51;27.00;;;24.70;;
1122;SDS011;548;48.778;9.252;2023-04-19T17:14:34;24.33;;;22.50;;
1122;SDS011;548;48.778;9.252;2023-04-19T17:17:01;25.00;;;22.80;;
1122;SDS011;548;48.778;9.252;2023-04-19T17:19:28;24.73;;;22.77;;
1122;SDS011;548;48.778;9.252;2023-04-19T17:21:54;25.43;;;23.57;;
1122;SDS011;548;48.778;9.252;2023-04-19T17:24:22;25.47;;;23.60;;
1122;SDS011;548;48.778;9.252;2023-04-19T17:26:49;26.03;;;23.97;;
1122;SDS011;548;48.778;9.252;2023-04-19T17:29:16;25.63;;;23.53;;
1122;SDS011;548;48.778;9.252;2023-04-19T17:31:44;24.03;;;22.33;;
1122;SDS011;548;48.778;9.252;2023-04-19T17:34:10;26.07;;;24.10;;
1122;SDS011;548;48.778;9.252;2023-04-19T17:36:37;26.33;;;23.93;;
1122;SDS011;548;48.778;9.252;2023-04-19T17:39:05;24.43;;;22.57;;
1122;SDS011;548;48.778;9.252;2023-04-19T17:41:31;24.40;;;22.60;;
1122;SDS011;548;48.778;9.252;2023-04-19T17:43:58;25.73;;;23.73;;
1122;SDS011;548;48.778;9.252;2023-04-19T17:46:25;26.33;;;24.40;;
1122;SDS011;548;48.778;9.252;2023-04-19T17:48:53;26.80;;;24.90;;
1122;SDS011;548;48.778;9.252;2023-04-19T17:51:20;26.87;;;24.93;;
1122;SDS011;548;48.778;9.252;2023-04-19T17:53:46;26.37;;;24.40;;
1122;SDS011;548;48.778;9.252;2023-04-19T17:56:13;23.97;;;22.27;;
1122;SDS011;548;48.778;9.252;2023-04-19T17:58:40;18.37;;;16.77;;
1122;SDS011;548;48.778;9.252;2023-04-19T18:01:07;12.57;;;11.87;;
1122;SDS011;548;48.778;9.252;2023-04-19T18:03:34;11.60;;;10.93;;
1122;SDS011;548;48.778;9.252;2023-04-19T18:06:02;10.50;;;10.00;;
1122;SDS011;548;48.778;9.252;2023-04-19T18:08:29;10.83;;;10.33;;
1122;SDS011;548;48.778;9.252;2023-04-19T18:10:56;12.20;;;11.50;;
1122;SDS011;548;48.778;9.252;2023-04-19T18:13:22;11.57;;;11.17;;
1122;SDS011;548;48.778;9.252;2023-04-19T18:15:49;12.47;;;11.97;;
1122;SDS011;548;48.778;9.252;2023-04-19T18:18:16;11.53;;;10.87;;
1122;SDS011;548;48.778;9.252;2023-04-19T18:20:43;11.53;;;10.73;;
1122;SDS011;548;48.778;9.252;2023-04-19T18:23:11;11.37;;;10.97;;
1122;SDS011;548;48.778;9.252;2023-04-19T18:25:37;11.07;;;10.67;;
1122;SDS011;548;48.778;9.252;2023-04-19T18:28:04;10.27;;;9.87;;
1122;SDS011;548;48.778;9.252;2023-04-19T18:30:31;10.80;;;10.40;;
1122;SDS011;548;48.778;9.252;2023-04-19T18:32:57;10.87;;;10.47;;
1122;SDS011;548;48.778;9.252;2023-04-19T18:35:24;11.60;;;10.90;;
1122;SDS011;548;48.778;9.252;2023-04-19T18:37:51;11.60;;;11.10;;
1122;SDS011;548;48.778;9.252;2023-04-19T18:40:19;12.27;;;11.67;;
1122;SDS011;548;48.778;9.252;2023-04-19T18:42:45;11.00;;;10.60;;
1122;SDS011;548;48.778;9.252;2023-04-19T18:45:12;11.83;;;11.43;;
1122;SDS011;548;48.778;9.252;2023-04-19T18:47:39;11.20;;;10.60;;
1122;SDS011;548;48.778;9.252;2023-04-19T18:50:06;11.50;;;10.90;;
1122;SDS011;548;48.778;9.252;2023-04-19T18:52:34;10.37;;;9.97;;
1122;SDS011;548;48.778;9.252;2023-04-19T18:55:01;10.73;;;10.23;;
1122;SDS011;548;48.778;9.252;2023-04-19T18:57:29;10.30;;;9.70;;
1122;SDS011;548;48.778;9.252;2023-04-19T18:59:57;13.23;;;11.70;;
1122;SDS011;548;48.778;9.252;2023-04-19T19:02:24;9.67;;;9.23;;
1122;SDS011;548;48.778;9.252;2023-04-19T19:04:51;10.90;;;10.30;;
1122;SDS011;548;48.778;9.252;2023-04-19T19:07:17;10.77;;;10.13;;
1122;SDS011;548;48.778;9.252;2023-04-19T19:09:44;11.80;;;11.30;;
1122;SDS011;548;48.778;9.252;2023-04-19T19:12:10;11.20;;;10.60;;
1122;SDS011;548;48.778;9.252;2023-04-19T19:14:39;10.97;;;10.47;;
1122;SDS011;548;48.778;9.252;2023-04-19T19:17:05;10.27;;;9.87;;
1122;SDS011;548;48.778;9.252;2023-04-19T19:19:32;9.33;;;8.93;;
1122;SDS011;548;48.778;9.252;2023-04-19T19:21:59;10.70;;;10.20;;
1122;SDS011;548;48.778;9.252;2023-04-19T19:24:25;10.13;;;9.63;;
1122;SDS011;548;48.778;9.252;2023-04-19T19:26:52;10.60;;;10.10;;
1122;SDS011;548;48.778;9.252;2023-04-19T19:29:20;11.03;;;10.47;;
1122;SDS011;548;48.778;9.252;2023-04-19T19:31:48;11.43;;;10.93;;
1122;SDS011;548;48.778;9.252;2023-04-19T19:34:15;10.40;;;9.87;;
1122;SDS011;548;48.778;9.252;2023-04-19T19:36:42;10.00;;;9.60;;
1122;SDS011;548;48.778;9.252;2023-04-19T19:39:09;11.30;;;10.60;;
1122;SDS011;548;48.778;9.252;2023-04-19T19:41:35;11.07;;;10.57;;
1122;SDS011;548;48.778;9.252;2023-04-19T19:44:04;11.50;;;10.90;;
1122;SDS011;548;48.778;9.252;2023-04-19T19:46:31;11.10;;;10.33;;
1122;SDS011;548;48.778;9.252;2023-04-19T19:48:59;11.00;;;10.57;;
1122;SDS011;548;48.778;9.252;2023-04-19T19:51:26;11.23;;;10.60;;
1122;SDS011;548;48.778;9.252;2023-04-19T19:53:53;10.67;;;10.17;;
1122;SDS011;548;48.778;9.252;2023-04-19T19:56:20;11.13;;;10.63;;
1122;SDS011;548;48.778;9.252;2023-04-19T19:58:47;11.17;;;10.57;;
1122;SDS011;548;48.778;9.252;2023-04-19T20:01:14;11.40;;;10.80;;
1122;SDS011;548;48.778;9.252;2023-04-19T20:03:41;11.23;;;10.43;;
1122;SDS011;548;48.778;9.252;2023-04-19T20:06:10;11.73;;;11.03;;
1122;SDS011;548;48.778;9.252;2023-04-19T20:08:37;10.30;;;9.90;;
1122;SDS011;548;48.778;9.252;2023-04-19T20:11:05;10.57;;;10.17;;
1122;SDS011;548;48.778;9.252;2023-04-19T20:13:32;10.83;;;10.23;;
1122;SDS011;548;48.778;9.252;2023-04-19T20:15:59;11.00;;;10.40;;
1122;SDS011;548;48.778;9.252;2023-04-19T20:18:26;10.30;;;9.90;;
1122;SDS011;548;48.778;9.252;2023-04-19T20:20:53;11.50;;;10.90;;
1122;SDS011;548;48.778;9.252;2023-04-19T20:23:21;11.10;;;10.40;;
1122;SDS011;548;48.778;9.252;2023-04-19T20:25:48;10.53;;;10.03;;
1122;SDS011;548;48.778;9.252;2023-04-19T20:28:15;11.33;;;10.20;;
1122;SDS011;548;48.778;9.252;2023-04-19T20:30:41;11.37;;;10.77;;
1122;SDS011;548;48.778;9.252;2023-04-19T20:33:08;11.40;;;10.90;;
1122;SDS011;548;48.778;9.252;2023-04-19T20:35:35;10.00;;;9.60;;
1122;SDS011;548;48.778;9.252;2023-04-19T20:38:01;10.27;;;9.87;;
1122;SDS011;548;48.778;9.252;2023-04-19T20:40:29;9.50;;;8.90;;
1122;SDS011;548;48.778;9.252;2023-04-19T20:42:57;11.87;;;11.03;;
1122;SDS011;548;48.778;9.252;2023-04-19T20:45:23;10.60;;;10.10;;
1122;SDS011;548;48.778;9.252;2023-04-19T20:47:51;11.97;;;11.37;;
1122;SDS011;548;48.778;9.252;2023-04-19T20:50:18;10.33;;;9.83;;
1122;SDS011;548;48.778;9.252;2023-04-19T20:52:45;9.30;;;8.90;;
1122;SDS011;548;48.778;9.252;2023-04-19T20:55:11;10.50;;;9.80;;
1122;SDS011;548;48.778;9.252;2023-04-19T20:57:40;10.67;;;10.27;;
1122;SDS011;548;48.778;9.252;2023-04-19T21:00:07;11.23;;;10.73;;
1122;SDS011;548;48.778;9.252;2023-04-19T21:02:35;11.47;;;10.87;;
1122;SDS011;548;48.778;9.252;2023-04-19T21:05:02;10.90;;;10.10;;
1122;SDS011;548;48.778;9.252;2023-04-19T21:07:29;12.13;;;11.53;;
1122;SDS011;548;48.778;9.252;2023-04-19T21:09:56;10.17;;;9.67;;
1122;SDS011;548;48.778;9.252;2023-04-19T21:12:22;9.80;;;9.30;;
1122;SDS011;548;48.778;9.252;2023-04-19T21:14:50;10.57;;;9.97;;
1122;SDS011;548;48.778;9.252;2023-04-19T21:17:17;11.30;;;10.80;;
1122;SDS011;548;48.778;9.252;2023-04-19T21:19:44;11.80;;;10.80;;
1122;SDS011;548;48.778;9.252;2023-04-19T21:22:11;12.40;;;11.80;;
1122;SDS011;548;48.778;9.252;2023-04-19T21:24:37;11.00;;;10.20;;
1122;SDS011;548;48.778;9.252;2023-04-19T21:27:04;10.40;;;10.00;;
1122;SDS011;548;48.778;9.252;2023-04-19T21:29:31;12.13;;;11.63;;
1122;SDS011;548;48.778;9.252;2023-04-19T21:31:59;11.03;;;10.43;;
1122;SDS011;548;48.778;9.252;2023-04-19T21:34:26;13.07;;;11.73;;
1122;SDS011;548;48.778;9.252;2023-04-19T21:36:53;10.80;;;10.20;;
1122;SDS011;548;48.778;9.252;2023-04-19T21:39:19;11.53;;;10.93;;
1122;SDS011;548;48.778;9.252;2023-04-19T21:41:46;12.30;;;11.57;;
1122;SDS011;548;48.778;9.252;2023-04-19T21:44:12;10.47;;;10.07;;
1122;SDS011;548;48.778;9.252;2023-04-19T21:46:39;10.80;;;10.13;;
1122;SDS011;548;48.778;9.252;2023-04-19T21:49:07;11.47;;;10.87;;
1122;SDS011;548;48.778;9.252;2023-04-19T21:51:34;12.27;;;11.47;;
1122;SDS011;548;48.778;9.252;2023-04-19T21:54:01;11.93;;;11.23;;
1122;SDS011;548;48.778;9.252;2023-04-19T21:56:27;10.03;;;9.50;;
1122;SDS011;548;48.778;9.252;2023-04-19T21:58:54;11.00;;;10.40;;
1122;SDS011;548;48.778;9.252;2023-04-19T22:01:21;10.67;;;10.10;;
1122;SDS011;548;48.778;9.252;2023-04-19T22:03:47;11.90;;;11.20;;
1122;SDS011;548;48.778;9.252;2023-04-19T22:06:15;11.40;;;10.80;;
1122;SDS011;548;48.778;9.252;2023-04-19T22:08:43;10.10;;;9.47;;
1122;SDS011;548;48.778;9.252;2023-04-19T22:11:11;10.80;;;10.30;;
1122;SDS011;548;48.778;9.252;2023-04-19T22:13:39;10.80;;;10.20;;
1122;SDS011;548;48.778;9.252;2023-04-19T22:16:06;9.60;;;9.20;;
1122;SDS011;548;48.778;9.252;2023-04-19T22:18:33;11.03;;;10.23;;
1122;SDS011;548;48.778;9.252;2023-04-19T22:20:59;12.53;;;11.93;;
1122;SDS011;548;48.778;9.252;2023-04-19T22:23:27;12.60;;;11.90;;
1122;SDS011;548;48.778;9.252;2023-04-19T22:25:54;11.40;;;10.80;;
1122;SDS011;548;48.778;9.252;2023-04-19T22:28:21;11.30;;;10.47;;
1122;SDS011;548;48.778;9.252;2023-04-19T22:30:48;11.00;;;10.30;;
1122;SDS011;548;48.778;9.252;2023-04-19T22:33:15;11.17;;;10.57;;
1122;SDS011;548;48.778;9.252;2023-04-19T22:35:42;12.50;;;11.80;;
1122;SDS011;548;48.778;9.252;2023-04-19T22:38:09;11.60;;;10.90;;
1122;SDS011;548;48.778;9.252;2023-04-19T22:40:37;12.20;;;11.40;;
1122;SDS011;548;48.778;9.252;2023-04-19T22:43:04;11.23;;;10.50;;
1122;SDS011;548;48.778;9.252;2023-04-19T22:45:31;11.40;;;10.80;;
1122;SDS011;548;48.778;9.252;2023-04-19T22:47:58;11.97;;;11.13;;
1122;SDS011;548;48.778;9.252;2023-04-19T22:50:24;12.47;;;11.67;;
1122;SDS011;548;48.778;9.252;2023-04-19T22:52:52;13.47;;;12.67;;
1122;SDS011;548;48.778;9.252;2023-04-19T22:55:19;12.80;;;12.00;;
1122;SDS011;548;48.778;9.252;2023-04-19T22:57:47;13.90;;;13.00;;
1122;SDS011;548;48.778;9.252;2023-04-19T23:00:14;11.87;;;11.27;;
1122;SDS011;548;48.778;9.252;2023-04-19T23:02:42;12.60;;;11.80;;
1122;SDS011;548;48.778;9.252;2023-04-19T23:05:08;14.87;;;13.63;;
1122;SDS011;548;48.778;9.252;2023-04-19T23:07:35;13.00;;;12.40;;
1122;SDS011;548;48.778;9.252;2023-04-19T23:10:04;13.37;;;12.57;;
1122;SDS011;548;48.778;9.252;2023-04-19T23:12:31;13.90;;;12.90;;
1122;SDS011;548;48.778;9.252;2023-04-19T23:14:59;13.73;;;12.73;;
1122;SDS011;548;48.778;9.252;2023-04-19T23:17:27;15.20;;;13.70;;
1122;SDS011;548;48.778;9.252;2023-04-19T23:19:54;14.87;;;14.00;;
1122;SDS011;548;48.778;9.252;2023-04-19T23:22:21;12.63;;;11.93;;
1122;SDS011;548;48.778;9.252;2023-04-19T23:24:48;14.53;;;13.37;;
1122;SDS011;548;48.778;9.252;2023-04-19T23:27:14;16.23;;;15.43;;
1122;SDS011;548;48.778;9.252;2023-04-19T23:29:41;15.77;;;14.87;;
1122;SDS011;548;48.778;9.252;2023-04-19T23:32:09;16.57;;;15.30;;
1122;SDS011;548;48.778;9.252;2023-04-19T23:34:36;13.37;;;12.30;;
1122;SDS011;548;48.778;9.252;2023-04-19T23:37:02;13.27;;;12.53;;
1122;SDS011;548;48.778;9.252;2023-04-19T23:39:29;13.63;;;12.80;;
1122;SDS011;548;48.778;9.252;2023-04-19T23:41:56;14.90;;;14.00;;
1122;SDS011;548;48.778;9.252;2023-04-19T23:44:22;17.00;;;15.90;;
1122;SDS011;548;48.778;9.252;2023-04-19T23:46:51;13.47;;;12.77;;
1122;SDS011;548;48.778;9.252;2023-04-19T23:49:19;15.73;;;14.73;;
1122;SDS011;548;48.778;9.252;2023-04-19T23:51:45;16.63;;;15.90;;
1122;SDS011;548;48.778;9.252;2023-04-19T23:54:14;15.07;;;14.23;;
1122;SDS011;548;48.778;9.252;2023-04-19T23:56:44;15.33;;;14.53;;
1122;SDS011;548;48.778;9.252;2023-04-19T23:59:11;15.63;;;14.73;;
